sensor_id;sensor_type;location;lat;lon;timestamp;pressure;altitude;pressure_sealevel;temperature;humidity
55801;BME280;41730;51.960;20.158;2023-08-01T11:41:52;98721.45;;;21.21;67.22
55801;BME280;41730;51.960;20.158;2023-08-01T11:44:26;98726.75;;;21.89;65.90
55801;BME280;41730;51.960;20.158;2023-08-01T11:47:02;98726.54;;;22.56;63.83
55801;BME280;41730;51.960;20.158;2023-08-01T11:49:39;98720.77;;;23.05;62.34
55801;BME280;41730;51.960;20.158;2023-08-01T11:52:10;98719.89;;;23.43;61.31
55801;BME280;41730;51.960;20.158;2023-08-01T11:54:55;98713.44;;;23.62;60.36
55801;BME280;41730;51.960;20.158;2023-08-01T11:57:26;98717.39;;;23.69;59.81
55801;BME280;41730;51.960;20.158;2023-08-01T11:59:58;98710.16;;;23.74;59.66
55801;BME280;41730;51.960;20.158;2023-08-01T12:02:31;98712.02;;;23.72;59.67
55801;BME280;41730;51.960;20.158;2023-08-01T12:05:04;98707.98;;;23.67;59.96
55801;BME280;41730;51.960;20.158;2023-08-01T12:07:36;98709.63;;;23.69;59.46
55801;BME280;41730;51.960;20.158;2023-08-01T12:10:09;98705.35;;;23.62;59.68
55801;BME280;41730;51.960;20.158;2023-08-01T12:12:45;98707.91;;;23.70;59.58
55801;BME280;41730;51.960;20.158;2023-08-01T12:15:18;98704.64;;;23.82;58.87
55801;BME280;41730;51.960;20.158;2023-08-01T12:17:49;98703.58;;;23.99;58.48
55801;BME280;41730;51.960;20.158;2023-08-01T12:20:21;98697.92;;;24.09;58.20
55801;BME280;41730;51.960;20.158;2023-08-01T12:22:53;98696.45;;;24.27;57.72
55801;BME280;41730;51.960;20.158;2023-08-01T12:25:25;98697.80;;;24.40;57.33
55801;BME280;41730;51.960;20.158;2023-08-01T12:27:56;98696.00;;;24.42;56.96
55801;BME280;41730;51.960;20.158;2023-08-01T12:30:28;98692.55;;;24.50;56.91
55801;BME280;41730;51.960;20.158;2023-08-01T12:33:00;98691.63;;;24.53;56.87
55801;BME280;41730;51.960;20.158;2023-08-01T12:35:33;98688.34;;;24.58;56.51
55801;BME280;41730;51.960;20.158;2023-08-01T12:38:06;98682.75;;;24.53;56.57
55801;BME280;41730;51.960;20.158;2023-08-01T12:40:38;98679.71;;;24.56;56.26
55801;BME280;41730;51.960;20.158;2023-08-01T12:43:10;98678.30;;;24.61;56.05
55801;BME280;41730;51.960;20.158;2023-08-01T12:45:41;98670.91;;;24.63;55.91
55801;BME280;41730;51.960;20.158;2023-08-01T12:48:13;98666.90;;;24.66;55.67
55801;BME280;41730;51.960;20.158;2023-08-01T12:50:46;98667.76;;;24.60;56.01
55801;BME280;41730;51.960;20.158;2023-08-01T12:53:18;98664.73;;;24.64;55.71
55801;BME280;41730;51.960;20.158;2023-08-01T12:55:51;98666.91;;;24.74;55.55
55801;BME280;41730;51.960;20.158;2023-08-01T12:58:25;98664.20;;;24.79;55.44
55801;BME280;41730;51.960;20.158;2023-08-01T13:00:58;98659.54;;;24.74;55.61
55801;BME280;41730;51.960;20.158;2023-08-01T13:03:30;98657.18;;;24.62;55.94
55801;BME280;41730;51.960;20.158;2023-08-01T13:06:04;98657.95;;;24.65;55.96
55801;BME280;41730;51.960;20.158;2023-08-01T13:08:37;98655.08;;;24.66;55.81
55801;BME280;41730;51.960;20.158;2023-08-01T13:11:15;98653.71;;;24.64;55.85
55801;BME280;41730;51.960;20.158;2023-08-01T13:13:47;98651.19;;;24.57;55.98
55801;BME280;41730;51.960;20.158;2023-08-01T13:16:18;98655.17;;;24.46;56.20
55801;BME280;41730;51.960;20.158;2023-08-01T13:18:50;98655.91;;;24.30;56.52
55801;BME280;41730;51.960;20.158;2023-08-01T13:21:23;98656.08;;;24.31;56.65
55801;BME280;41730;51.960;20.158;2023-08-01T13:23:55;98657.95;;;24.18;56.73
55801;BME280;41730;51.960;20.158;2023-08-01T13:26:26;98660.96;;;24.09;56.70
55801;BME280;41730;51.960;20.158;2023-08-01T13:29:01;98661.77;;;23.93;56.93
55801;BME280;41730;51.960;20.158;2023-08-01T13:31:33;98661.38;;;23.92;56.90
55801;BME280;41730;51.960;20.158;2023-08-01T13:34:05;98662.12;;;23.81;56.98
55801;BME280;41730;51.960;20.158;2023-08-01T13:36:36;98660.32;;;23.79;57.07
55801;BME280;41730;51.960;20.158;2023-08-01T13:39:08;98660.14;;;23.82;56.94
55801;BME280;41730;51.960;20.158;2023-08-01T13:41:40;98660.90;;;23.93;56.65
55801;BME280;41730;51.960;20.158;2023-08-01T13:44:12;98654.17;;;24.05;56.24
55801;BME280;41730;51.960;20.158;2023-08-01T13:46:44;98654.08;;;24.07;55.88
55801;BME280;41730;51.960;20.158;2023-08-01T13:49:17;98651.17;;;23.96;56.17
55801;BME280;41730;51.960;20.158;2023-08-01T13:51:49;98646.48;;;24.10;55.97
55801;BME280;41730;51.960;20.158;2023-08-01T13:54:21;98640.77;;;24.25;55.70
55801;BME280;41730;51.960;20.158;2023-08-01T13:56:53;98636.59;;;24.25;55.79
55801;BME280;41730;51.960;20.158;2023-08-01T13:59:25;98633.91;;;24.23;55.75
55801;BME280;41730;51.960;20.158;2023-08-01T14:01:57;98636.85;;;24.31;55.82
55801;BME280;41730;51.960;20.158;2023-08-01T14:04:29;98635.56;;;24.53;55.45
55801;BME280;41730;51.960;20.158;2023-08-01T14:07:01;98637.47;;;24.50;55.17
55801;BME280;41730;51.960;20.158;2023-08-01T14:09:33;98634.27;;;24.47;55.24
55801;BME280;41730;51.960;20.158;2023-08-01T14:12:07;98627.58;;;24.48;55.22
55801;BME280;41730;51.960;20.158;2023-08-01T14:14:39;98623.13;;;24.35;55.37
55801;BME280;41730;51.960;20.158;2023-08-01T14:17:10;98620.80;;;24.33;55.71
55801;BME280;41730;51.960;20.158;2023-08-01T14:19:42;98625.05;;;24.49;55.26
55801;BME280;41730;51.960;20.158;2023-08-01T14:22:14;98618.79;;;24.42;55.15
55801;BME280;41730;51.960;20.158;2023-08-01T14:24:46;98617.73;;;24.32;55.28
55801;BME280;41730;51.960;20.158;2023-08-01T14:27:18;98615.98;;;24.34;55.39
55801;BME280;41730;51.960;20.158;2023-08-01T14:29:50;98610.51;;;24.30;55.36
55801;BME280;41730;51.960;20.158;2023-08-01T14:32:22;98607.20;;;24.14;55.65
55801;BME280;41730;51.960;20.158;2023-08-01T14:34:54;98604.82;;;24.13;55.81
55801;BME280;41730;51.960;20.158;2023-08-01T14:37:25;98604.00;;;24.10;55.96
55801;BME280;41730;51.960;20.158;2023-08-01T14:39:59;98602.95;;;24.02;56.03
55801;BME280;41730;51.960;20.158;2023-08-01T14:42:31;98597.35;;;23.88;56.56
55801;BME280;41730;51.960;20.158;2023-08-01T14:45:03;98592.71;;;24.04;56.32
55801;BME280;41730;51.960;20.158;2023-08-01T14:47:35;98590.73;;;24.05;56.06
55801;BME280;41730;51.960;20.158;2023-08-01T14:50:09;98583.36;;;23.86;56.57
55801;BME280;41730;51.960;20.158;2023-08-01T14:52:43;98576.70;;;23.95;56.68
55801;BME280;41730;51.960;20.158;2023-08-01T14:55:18;98576.39;;;24.16;56.10
55801;BME280;41730;51.960;20.158;2023-08-01T14:57:50;98566.52;;;24.17;56.08
55801;BME280;41730;51.960;20.158;2023-08-01T15:00:22;98564.98;;;24.13;56.45
55801;BME280;41730;51.960;20.158;2023-08-01T15:02:54;98570.34;;;24.11;56.50
55801;BME280;41730;51.960;20.158;2023-08-01T15:05:27;98574.80;;;23.94;57.02
55801;BME280;41730;51.960;20.158;2023-08-01T15:07:58;98574.00;;;23.95;57.01
55801;BME280;41730;51.960;20.158;2023-08-01T15:10:37;98579.48;;;23.90;57.15
55801;BME280;41730;51.960;20.158;2023-08-01T15:13:09;98575.71;;;23.93;57.09
55801;BME280;41730;51.960;20.158;2023-08-01T15:15:41;98581.10;;;23.96;57.19
55801;BME280;41730;51.960;20.158;2023-08-01T15:18:12;98586.35;;;24.01;57.12
55801;BME280;41730;51.960;20.158;2023-08-01T15:20:44;98589.55;;;23.92;57.31
55801;BME280;41730;51.960;20.158;2023-08-01T15:23:15;98594.26;;;23.72;57.93
55801;BME280;41730;51.960;20.158;2023-08-01T15:25:54;98588.12;;;23.75;58.20
55801;BME280;41730;51.960;20.158;2023-08-01T15:28:27;98589.48;;;23.90;57.81
55801;BME280;41730;51.960;20.158;2023-08-01T15:31:06;98591.39;;;23.83;57.99
55801;BME280;41730;51.960;20.158;2023-08-01T15:33:41;98593.98;;;23.75;58.28
55801;BME280;41730;51.960;20.158;2023-08-01T15:36:13;98591.48;;;23.64;58.55
55801;BME280;41730;51.960;20.158;2023-08-01T15:38:44;98598.05;;;23.72;58.45
55801;BME280;41730;51.960;20.158;2023-08-01T15:41:16;98597.86;;;23.75;57.99
55801;BME280;41730;51.960;20.158;2023-08-01T15:43:48;98602.96;;;23.64;58.39
55801;BME280;41730;51.960;20.158;2023-08-01T15:46:20;98608.27;;;23.73;58.12
55801;BME280;41730;51.960;20.158;2023-08-01T15:48:52;98605.23;;;23.65;58.30
55801;BME280;41730;51.960;20.158;2023-08-01T15:51:25;98609.29;;;23.54;58.49
55801;BME280;41730;51.960;20.158;2023-08-01T15:53:57;98607.21;;;23.52;58.54
55801;BME280;41730;51.960;20.158;2023-08-01T15:56:29;98606.44;;;23.54;58.43
55801;BME280;41730;51.960;20.158;2023-08-01T15:59:02;98614.52;;;23.60;58.13
55801;BME280;41730;51.960;20.158;2023-08-01T16:01:35;98608.50;;;23.51;58.31
55801;BME280;41730;51.960;20.158;2023-08-01T16:04:08;98613.80;;;23.38;58.55
55801;BME280;41730;51.960;20.158;2023-08-01T16:06:40;98612.77;;;23.41;58.53
55801;BME280;41730;51.960;20.158;2023-08-01T16:09:14;98611.80;;;23.52;57.98
55801;BME280;41730;51.960;20.158;2023-08-01T16:11:46;98603.84;;;23.56;57.77
55801;BME280;41730;51.960;20.158;2023-08-01T16:14:19;98605.59;;;23.59;57.66
55801;BME280;41730;51.960;20.158;2023-08-01T16:17:10;98606.05;;;23.62;57.56
55801;BME280;41730;51.960;20.158;2023-08-01T16:19:42;98600.49;;;23.60;57.56
55801;BME280;41730;51.960;20.158;2023-08-01T16:22:16;98604.88;;;23.58;57.66
55801;BME280;41730;51.960;20.158;2023-08-01T16:24:49;98607.16;;;23.55;57.72
55801;BME280;41730;51.960;20.158;2023-08-01T16:27:22;98611.56;;;23.60;57.51
55801;BME280;41730;51.960;20.158;2023-08-01T16:29:56;98614.87;;;23.64;57.49
55801;BME280;41730;51.960;20.158;2023-08-01T16:32:29;98611.92;;;23.76;57.22
55801;BME280;41730;51.960;20.158;2023-08-01T16:35:01;98618.54;;;23.74;57.19
55801;BME280;41730;51.960;20.158;2023-08-01T16:37:35;98613.77;;;23.68;57.35
55801;BME280;41730;51.960;20.158;2023-08-01T16:40:10;98613.20;;;23.63;57.30
55801;BME280;41730;51.960;20.158;2023-08-01T16:42:44;98609.66;;;23.46;57.70
55801;BME280;41730;51.960;20.158;2023-08-01T16:45:16;98615.20;;;23.38;58.01
55801;BME280;41730;51.960;20.158;2023-08-01T16:47:49;98618.91;;;23.34;58.10
55801;BME280;41730;51.960;20.158;2023-08-01T16:50:22;98626.71;;;23.25;58.34
55801;BME280;41730;51.960;20.158;2023-08-01T16:52:55;98630.23;;;23.18;58.46
55801;BME280;41730;51.960;20.158;2023-08-01T16:55:28;98633.06;;;23.28;58.30
55801;BME280;41730;51.960;20.158;2023-08-01T16:58:00;98639.85;;;23.32;58.14
55801;BME280;41730;51.960;20.158;2023-08-01T17:00:37;98638.70;;;23.21;58.41
55801;BME280;41730;51.960;20.158;2023-08-01T17:03:10;98640.84;;;23.16;58.50
55801;BME280;41730;51.960;20.158;2023-08-01T17:05:44;98641.65;;;23.22;58.45
55801;BME280;41730;51.960;20.158;2023-08-01T17:08:17;98641.34;;;23.34;58.10
55801;BME280;41730;51.960;20.158;2023-08-01T17:10:52;98642.32;;;23.44;57.82
55801;BME280;41730;51.960;20.158;2023-08-01T17:13:24;98641.45;;;23.48;57.67
55801;BME280;41730;51.960;20.158;2023-08-01T17:15:58;98643.53;;;23.37;57.76
55801;BME280;41730;51.960;20.158;2023-08-01T17:18:33;98650.73;;;23.22;58.06
55801;BME280;41730;51.960;20.158;2023-08-01T17:21:08;98649.94;;;23.12;58.38
55801;BME280;41730;51.960;20.158;2023-08-01T17:23:40;98651.11;;;23.16;58.41
55801;BME280;41730;51.960;20.158;2023-08-01T17:26:14;98653.73;;;23.23;58.22
55801;BME280;41730;51.960;20.158;2023-08-01T17:28:46;98652.45;;;23.31;58.06
55801;BME280;41730;51.960;20.158;2023-08-01T17:31:18;98657.95;;;23.21;58.29
55801;BME280;41730;51.960;20.158;2023-08-01T17:33:52;98656.81;;;23.12;58.69
55801;BME280;41730;51.960;20.158;2023-08-01T17:36:28;98659.17;;;23.04;58.91
55801;BME280;41730;51.960;20.158;2023-08-01T17:39:04;98659.36;;;22.84;59.52
55801;BME280;41730;51.960;20.158;2023-08-01T17:41:40;98659.07;;;22.82;59.72
55801;BME280;41730;51.960;20.158;2023-08-01T17:44:15;98660.31;;;22.83;59.70
55801;BME280;41730;51.960;20.158;2023-08-01T17:46:48;98660.26;;;22.87;59.67
55801;BME280;41730;51.960;20.158;2023-08-01T17:49:21;98662.98;;;22.72;59.94
55801;BME280;41730;51.960;20.158;2023-08-01T17:51:57;98667.69;;;22.58;60.44
55801;BME280;41730;51.960;20.158;2023-08-01T17:54:31;98665.95;;;22.73;60.14
55801;BME280;41730;51.960;20.158;2023-08-01T17:57:04;98661.19;;;22.81;59.94
55801;BME280;41730;51.960;20.158;2023-08-01T17:59:36;98661.77;;;22.73;60.05
55801;BME280;41730;51.960;20.158;2023-08-01T18:02:11;98665.85;;;22.64;60.20
55801;BME280;41730;51.960;20.158;2023-08-01T18:04:45;98665.88;;;22.56;60.50
55801;BME280;41730;51.960;20.158;2023-08-01T18:07:19;98668.14;;;22.54;60.70
55801;BME280;41730;51.960;20.158;2023-08-01T18:09:54;98669.15;;;22.62;60.51
55801;BME280;41730;51.960;20.158;2023-08-01T18:12:26;98676.21;;;22.65;60.30
55801;BME280;41730;51.960;20.158;2023-08-01T18:15:00;98681.23;;;22.54;60.50
55801;BME280;41730;51.960;20.158;2023-08-01T18:17:33;98682.92;;;22.53;60.63
55801;BME280;41730;51.960;20.158;2023-08-01T18:20:09;98690.81;;;22.66;60.29
55801;BME280;41730;51.960;20.158;2023-08-01T18:22:43;98693.88;;;22.61;60.31
55801;BME280;41730;51.960;20.158;2023-08-01T18:25:18;98696.62;;;22.51;60.51
55801;BME280;41730;51.960;20.158;2023-08-01T18:27:51;98699.36;;;22.41;60.88
55801;BME280;41730;51.960;20.158;2023-08-01T18:30:24;98702.67;;;22.27;61.41
55801;BME280;41730;51.960;20.158;2023-08-01T18:33:01;98702.83;;;22.19;61.53
55801;BME280;41730;51.960;20.158;2023-08-01T18:35:44;98704.73;;;22.13;61.68
55801;BME280;41730;51.960;20.158;2023-08-01T18:38:19;98720.29;;;22.17;61.62
55801;BME280;41730;51.960;20.158;2023-08-01T18:40:56;98744.52;;;22.20;61.66
55801;BME280;41730;51.960;20.158;2023-08-01T18:43:29;98752.19;;;21.98;61.85
55801;BME280;41730;51.960;20.158;2023-08-01T18:46:03;98747.89;;;21.51;62.80
55801;BME280;41730;51.960;20.158;2023-08-01T18:48:38;98744.65;;;21.14;64.18
55801;BME280;41730;51.960;20.158;2023-08-01T18:51:14;98737.53;;;20.98;64.65
55801;BME280;41730;51.960;20.158;2023-08-01T18:53:49;98735.23;;;20.72;65.45
55801;BME280;41730;51.960;20.158;2023-08-01T18:56:24;98730.36;;;20.49;66.14
55801;BME280;41730;51.960;20.158;2023-08-01T18:58:58;98732.73;;;20.41;66.61
55801;BME280;41730;51.960;20.158;2023-08-01T19:01:32;98740.27;;;20.30;67.17
55801;BME280;41730;51.960;20.158;2023-08-01T19:04:05;98741.50;;;20.24;67.45
55801;BME280;41730;51.960;20.158;2023-08-01T19:06:38;98739.17;;;20.23;67.65
55801;BME280;41730;51.960;20.158;2023-08-01T19:09:12;98738.73;;;20.12;67.83
55801;BME280;41730;51.960;20.158;2023-08-01T19:11:50;98740.13;;;19.94;68.53
55801;BME280;41730;51.960;20.158;2023-08-01T19:14:24;98740.28;;;19.86;68.94
55801;BME280;41730;51.960;20.158;2023-08-01T19:16:59;98745.60;;;19.94;68.98
55801;BME280;41730;51.960;20.158;2023-08-01T19:19:34;98750.27;;;20.00;68.96
55801;BME280;41730;51.960;20.158;2023-08-01T19:22:08;98753.11;;;20.02;68.94
55801;BME280;41730;51.960;20.158;2023-08-01T19:24:41;98756.84;;;19.96;69.12
55801;BME280;41730;51.960;20.158;2023-08-01T19:27:15;98759.18;;;19.92;69.42
55801;BME280;41730;51.960;20.158;2023-08-01T19:29:50;98766.29;;;19.98;69.36
55801;BME280;41730;51.960;20.158;2023-08-01T19:32:25;98771.50;;;20.02;69.41
55801;BME280;41730;51.960;20.158;2023-08-01T19:35:00;98768.17;;;19.97;69.59
55801;BME280;41730;51.960;20.158;2023-08-01T19:37:34;98766.84;;;19.97;69.47
55801;BME280;41730;51.960;20.158;2023-08-01T19:40:10;98770.03;;;19.84;69.81
55801;BME280;41730;51.960;20.158;2023-08-01T19:42:43;98772.33;;;19.72;70.11
55801;BME280;41730;51.960;20.158;2023-08-01T19:45:17;98775.70;;;19.71;70.26
55801;BME280;41730;51.960;20.158;2023-08-01T19:47:51;98780.11;;;19.81;70.02
55801;BME280;41730;51.960;20.158;2023-08-01T19:50:24;98779.41;;;19.85;69.75
55801;BME280;41730;51.960;20.158;2023-08-01T19:53:00;98782.65;;;19.86;69.71
55801;BME280;41730;51.960;20.158;2023-08-01T19:55:34;98792.52;;;19.79;69.85
55801;BME280;41730;51.960;20.158;2023-08-01T19:58:07;98797.78;;;19.70;70.00
55801;BME280;41730;51.960;20.158;2023-08-01T20:00:41;98797.27;;;19.61;70.57
55801;BME280;41730;51.960;20.158;2023-08-01T20:03:17;98798.90;;;19.62;70.41
55801;BME280;41730;51.960;20.158;2023-08-01T20:05:57;98797.58;;;19.55;70.56
55801;BME280;41730;51.960;20.158;2023-08-01T20:08:32;98792.80;;;19.44;70.84
55801;BME280;41730;51.960;20.158;2023-08-01T20:11:03;98794.60;;;19.33;71.18
55801;BME280;41730;51.960;20.158;2023-08-01T20:13:36;98791.20;;;19.35;70.80
55801;BME280;41730;51.960;20.158;2023-08-01T20:16:10;98794.73;;;19.44;70.71
55801;BME280;41730;51.960;20.158;2023-08-01T20:18:45;98789.40;;;19.42;70.77
55801;BME280;41730;51.960;20.158;2023-08-01T20:21:19;98787.11;;;19.32;71.08
55801;BME280;41730;51.960;20.158;2023-08-01T20:23:52;98787.09;;;19.28;71.41
55801;BME280;41730;51.960;20.158;2023-08-01T20:26:26;98787.77;;;19.26;71.51
55801;BME280;41730;51.960;20.158;2023-08-01T20:28:59;98789.77;;;19.37;71.35
55801;BME280;41730;51.960;20.158;2023-08-01T20:31:32;98791.47;;;19.49;70.91
55801;BME280;41730;51.960;20.158;2023-08-01T20:34:08;98788.16;;;19.54;70.73
55801;BME280;41730;51.960;20.158;2023-08-01T20:36:41;98782.81;;;19.53;70.79
55801;BME280;41730;51.960;20.158;2023-08-01T20:39:15;98785.85;;;19.53;70.89
55801;BME280;41730;51.960;20.158;2023-08-01T20:41:48;98783.85;;;19.48;71.03
55801;BME280;41730;51.960;20.158;2023-08-01T20:44:21;98781.47;;;19.39;71.53
55801;BME280;41730;51.960;20.158;2023-08-01T20:46:56;98779.13;;;19.48;71.27
55801;BME280;41730;51.960;20.158;2023-08-01T20:49:30;98780.47;;;19.42;71.57
55801;BME280;41730;51.960;20.158;2023-08-01T20:52:03;98778.53;;;19.41;71.73
55801;BME280;41730;51.960;20.158;2023-08-01T20:54:37;98777.88;;;19.47;71.74
55801;BME280;41730;51.960;20.158;2023-08-01T20:57:10;98783.41;;;19.61;71.40
55801;BME280;41730;51.960;20.158;2023-08-01T20:59:44;98785.50;;;19.66;71.30
55801;BME280;41730;51.960;20.158;2023-08-01T21:02:16;98790.42;;;19.71;71.09
55801;BME280;41730;51.960;20.158;2023-08-01T21:04:48;98787.02;;;19.72;71.20
55801;BME280;41730;51.960;20.158;2023-08-01T21:07:20;98789.30;;;19.80;71.01
55801;BME280;41730;51.960;20.158;2023-08-01T21:09:51;98795.27;;;19.76;71.23
55801;BME280;41730;51.960;20.158;2023-08-01T21:12:23;98799.77;;;19.77;71.31
55801;BME280;41730;51.960;20.158;2023-08-01T21:14:55;98795.55;;;19.84;71.22
55801;BME280;41730;51.960;20.158;2023-08-01T21:17:29;98796.27;;;19.75;71.63
55801;BME280;41730;51.960;20.158;2023-08-01T21:20:00;98793.90;;;19.77;71.58
55801;BME280;41730;51.960;20.158;2023-08-01T21:22:34;98797.30;;;19.65;71.90
55801;BME280;41730;51.960;20.158;2023-08-01T21:25:07;98807.29;;;19.75;71.85
55801;BME280;41730;51.960;20.158;2023-08-01T21:27:39;98812.61;;;19.86;71.64
55801;BME280;41730;51.960;20.158;2023-08-01T21:30:12;98816.00;;;19.90;71.40
55801;BME280;41730;51.960;20.158;2023-08-01T21:32:43;98812.14;;;19.83;71.65
55801;BME280;41730;51.960;20.158;2023-08-01T21:35:15;98799.05;;;19.78;71.79
55801;BME280;41730;51.960;20.158;2023-08-01T21:37:48;98796.76;;;19.79;71.97
55801;BME280;41730;51.960;20.158;2023-08-01T21:40:20;98793.23;;;19.79;71.81
55801;BME280;41730;51.960;20.158;2023-08-01T21:42:52;98797.20;;;19.60;72.37
55801;BME280;41730;51.960;20.158;2023-08-01T21:45:24;98798.02;;;19.62;72.48
55801;BME280;41730;51.960;20.158;2023-08-01T21:47:56;98800.27;;;19.72;72.15
55801;BME280;41730;51.960;20.158;2023-08-01T21:50:28;98803.23;;;19.66;72.24
55801;BME280;41730;51.960;20.158;2023-08-01T21:53:00;98803.13;;;19.57;72.63
55801;BME280;41730;51.960;20.158;2023-08-01T21:55:31;98801.95;;;19.60;72.54
55801;BME280;41730;51.960;20.158;2023-08-01T21:58:03;98799.64;;;19.78;72.03
55801;BME280;41730;51.960;20.158;2023-08-01T22:00:36;98802.51;;;19.63;72.23
55801;BME280;41730;51.960;20.158;2023-08-01T22:03:08;98801.77;;;19.44;72.98
55801;BME280;41730;51.960;20.158;2023-08-01T22:05:41;98806.29;;;19.54;72.76
55801;BME280;41730;51.960;20.158;2023-08-01T22:08:13;98809.73;;;19.53;72.67
55801;BME280;41730;51.960;20.158;2023-08-01T22:10:44;98814.86;;;19.57;72.60
55801;BME280;41730;51.960;20.158;2023-08-01T22:13:22;98825.07;;;19.49;72.70
55801;BME280;41730;51.960;20.158;2023-08-01T22:15:53;98834.63;;;19.44;72.95
55801;BME280;41730;51.960;20.158;2023-08-01T22:18:26;98837.89;;;19.47;73.03
55801;BME280;41730;51.960;20.158;2023-08-01T22:20:58;98830.55;;;19.55;72.50
55801;BME280;41730;51.960;20.158;2023-08-01T22:23:29;98834.91;;;19.53;72.73
55801;BME280;41730;51.960;20.158;2023-08-01T22:26:01;98830.23;;;19.58;72.54
55801;BME280;41730;51.960;20.158;2023-08-01T22:28:33;98829.02;;;19.62;72.33
55801;BME280;41730;51.960;20.158;2023-08-01T22:31:04;98828.41;;;19.57;72.40
55801;BME280;41730;51.960;20.158;2023-08-01T22:33:36;98826.63;;;19.53;72.69
55801;BME280;41730;51.960;20.158;2023-08-01T22:36:12;98833.21;;;19.46;72.89
55801;BME280;41730;51.960;20.158;2023-08-01T22:38:46;98837.83;;;19.45;72.98
55801;BME280;41730;51.960;20.158;2023-08-01T22:41:18;98839.58;;;19.41;73.18
55801;BME280;41730;51.960;20.158;2023-08-01T22:43:55;98838.70;;;19.27;73.42
55801;BME280;41730;51.960;20.158;2023-08-01T22:46:29;98836.19;;;19.17;73.92
55801;BME280;41730;51.960;20.158;2023-08-01T22:49:01;98838.29;;;19.21;73.75
55801;BME280;41730;51.960;20.158;2023-08-01T22:51:32;98838.53;;;19.27;73.54
55801;BME280;41730;51.960;20.158;2023-08-01T22:54:04;98837.48;;;19.35;73.24
55801;BME280;41730;51.960;20.158;2023-08-01T22:56:37;98846.90;;;19.27;73.44
55801;BME280;41730;51.960;20.158;2023-08-01T22:59:09;98850.63;;;19.15;73.98
55801;BME280;41730;51.960;20.158;2023-08-01T23:01:42;98855.46;;;19.29;73.59
55801;BME280;41730;51.960;20.158;2023-08-01T23:04:14;98855.02;;;19.39;73.07
55801;BME280;41730;51.960;20.158;2023-08-01T23:06:47;98850.27;;;19.38;73.11
55801;BME280;41730;51.960;20.158;2023-08-01T23:09:19;98853.67;;;19.38;73.07
55801;BME280;41730;51.960;20.158;2023-08-01T23:11:51;98852.72;;;19.43;72.89
55801;BME280;41730;51.960;20.158;2023-08-01T23:14:23;98853.80;;;19.30;73.16
55801;BME280;41730;51.960;20.158;2023-08-01T23:16:55;98863.39;;;19.27;73.48
55801;BME280;41730;51.960;20.158;2023-08-01T23:19:27;98874.31;;;19.25;73.44
55801;BME280;41730;51.960;20.158;2023-08-01T23:21:58;98880.71;;;19.35;73.10
55801;BME280;41730;51.960;20.158;2023-08-01T23:24:30;98879.35;;;19.47;72.78
55801;BME280;41730;51.960;20.158;2023-08-01T23:27:03;98877.58;;;19.53;72.47
55801;BME280;41730;51.960;20.158;2023-08-01T23:29:35;98870.27;;;19.44;72.56
55801;BME280;41730;51.960;20.158;2023-08-01T23:32:08;98867.98;;;19.42;72.76
55801;BME280;41730;51.960;20.158;2023-08-01T23:34:40;98866.60;;;19.46;72.67
55801;BME280;41730;51.960;20.158;2023-08-01T23:37:13;98866.44;;;19.46;72.47
55801;BME280;41730;51.960;20.158;2023-08-01T23:39:44;98865.23;;;19.39;72.85
55801;BME280;41730;51.960;20.158;2023-08-01T23:42:16;98862.65;;;19.38;72.76
55801;BME280;41730;51.960;20.158;2023-08-01T23:44:48;98860.03;;;19.41;72.61
55801;BME280;41730;51.960;20.158;2023-08-01T23:47:20;98859.10;;;19.29;72.88
55801;BME280;41730;51.960;20.158;2023-08-01T23:49:51;98864.73;;;19.17;73.27
55801;BME280;41730;51.960;20.158;2023-08-01T23:52:23;98867.01;;;19.19;73.25
55801;BME280;41730;51.960;20.158;2023-08-01T23:54:55;98876.41;;;19.21;73.36
55801;BME280;41730;51.960;20.158;2023-08-01T23:57:26;98873.12;;;19.32;72.88
55801;BME280;41730;51.960;20.158;2023-08-01T23:59:58;98877.52;;;19.33;72.70
